Time;durP1;ratioP1;P1;durP2;ratioP2;P2;SDS_P1;SDS_P2;PMS_P1;PMS_P2;Temp;Humidity;BMP_temperature;BMP_pressure;BME280_temperature;BME280_humidity;BME280_pressure;Samples;Min_cycle;Max_cycle;Signal;HPM_P1;HPM_P2
2022/05/07 00:02:05;;;;;;;0.10;0.10;;;;;;;17.55;48.06;102388.38;5052962;28;20223;-80
2022/05/07 00:04:31;;;;;;;0.03;0.03;;;;;;;17.57;48.75;102382.06;5053193;28;20061;-81
2022/05/07 00:06:57;;;;;;;0.10;0.10;;;;;;;17.58;48.72;102385.63;5054450;28;20021;-81
2022/05/07 00:09:24;;;;;;;0.10;0.10;;;;;;;17.56;48.87;102390.16;5062120;28;20041;-80
2022/05/07 00:11:50;;;;;;;0.00;0.00;;;;;;;17.56;48.69;102387.47;5049635;28;20572;-81
2022/05/07 00:14:17;;;;;;;0.00;0.00;;;;;;;17.49;48.55;102380.50;5058311;28;20037;-80
2022/05/07 00:19:29;;;;;;;0.00;0.00;;;;;;;17.50;48.85;102372.41;5062486;28;20165;-80
2022/05/07 00:21:55;;;;;;;0.10;0.10;;;;;;;17.50;48.84;102376.91;5063947;28;20036;-81
2022/05/07 00:24:21;;;;;;;0.10;0.10;;;;;;;17.51;48.70;102378.63;5066112;28;20115;-80
2022/05/07 00:26:47;;;;;;;0.00;0.00;;;;;;;17.46;48.14;102373.41;5060537;28;20025;-81
2022/05/07 00:29:13;;;;;;;0.22;0.22;;;;;;;17.53;48.20;102371.44;5066087;28;20482;-80
2022/05/07 00:31:40;;;;;;;0.08;0.08;;;;;;;17.55;47.93;102369.63;5077359;28;20059;-80
2022/05/07 00:34:06;;;;;;;0.00;0.00;;;;;;;17.57;48.20;102374.03;5058604;28;20025;-80
2022/05/07 00:36:33;;;;;;;0.00;0.00;;;;;;;17.59;49.08;102361.44;5056990;28;20067;-81
2022/05/07 00:38:59;;;;;;;0.00;0.00;;;;;;;17.53;48.33;102350.88;5075131;28;20032;-81
2022/05/07 00:41:26;;;;;;;0.00;0.00;;;;;;;17.58;48.50;102356.13;5063724;28;20060;-81
2022/05/07 00:43:52;;;;;;;0.20;0.20;;;;;;;17.57;48.42;102357.03;5052736;28;20128;-80
2022/05/07 00:46:23;;;;;;;0.00;0.00;;;;;;;17.61;48.58;102350.72;5058250;28;20124;-79
2022/05/07 00:48:50;;;;;;;0.00;0.00;;;;;;;17.57;48.73;102347.22;5056754;28;20196;-81
2022/05/07 00:51:47;;;;;;;0.10;0.10;;;;;;;17.59;48.51;102348.03;5074414;28;20050;-81
2022/05/07 00:54:04;;;;;;;0.00;0.00;;;;;;;17.60;48.92;102346.25;5066420;28;20037;-81
2022/05/07 00:56:32;;;;;;;0.10;0.10;;;;;;;17.57;48.67;102336.50;5071410;28;20139;-81
2022/05/07 00:58:59;;;;;;;0.00;0.00;;;;;;;17.57;48.79;102336.50;5075628;28;20028;-80
2022/05/07 01:01:26;;;;;;;0.22;0.22;;;;;;;17.56;48.83;102337.41;5052893;28;20033;-81
2022/05/07 01:03:53;;;;;;;0.00;0.00;;;;;;;17.56;49.26;102339.22;5047836;28;20025;-81
2022/05/07 01:06:20;;;;;;;0.00;0.00;;;;;;;17.54;48.70;102347.28;5053508;28;20040;-81
2022/05/07 01:08:48;;;;;;;0.00;0.00;;;;;;;17.52;48.82;102342.88;5061840;28;20028;-81
2022/05/07 01:11:16;;;;;;;0.00;0.00;;;;;;;17.49;48.68;102348.34;5068215;28;20162;-80
2022/05/07 01:13:45;;;;;;;0.00;0.00;;;;;;;17.43;49.07;102350.25;5058307;28;20086;-80
2022/05/07 01:16:12;;;;;;;0.03;0.03;;;;;;;17.39;49.80;102347.69;5059926;28;20078;-80
2022/05/07 01:18:39;;;;;;;0.20;0.20;;;;;;;17.38;49.40;102340.56;5055183;28;20025;-80
2022/05/07 01:21:09;;;;;;;0.00;0.00;;;;;;;17.37;49.37;102349.50;5055925;28;20039;-80
2022/05/07 01:23:36;;;;;;;0.00;0.00;;;;;;;17.30;49.58;102348.78;5055251;28;20029;-81
2022/05/07 01:26:02;;;;;;;0.10;0.10;;;;;;;17.26;49.54;102352.47;5055023;28;20029;-80
2022/05/07 01:28:28;;;;;;;0.00;0.00;;;;;;;17.26;49.51;102347.13;5053324;28;20028;-80
2022/05/07 01:30:55;;;;;;;0.20;0.20;;;;;;;17.27;50.20;102343.50;5060862;28;20450;-80
2022/05/07 01:33:22;;;;;;;0.00;0.00;;;;;;;17.28;49.94;102340.81;5058554;28;20164;-80
2022/05/07 01:35:48;;;;;;;0.00;0.00;;;;;;;17.27;50.13;102341.72;5051673;28;20037;-80
2022/05/07 01:38:14;;;;;;;0.22;0.22;;;;;;;17.23;50.25;102337.31;5054922;28;20059;-80
2022/05/07 01:40:40;;;;;;;0.10;0.10;;;;;;;17.22;50.45;102327.56;5072031;28;20397;-80
2022/05/07 01:43:06;;;;;;;0.00;0.00;;;;;;;17.22;50.13;102330.22;5059231;28;20048;-80
2022/05/07 01:45:32;;;;;;;0.00;0.00;;;;;;;17.19;50.21;102332.97;5046727;28;20125;-80
2022/05/07 01:48:13;;;;;;;0.00;0.00;;;;;;;17.17;50.57;102336.59;5056954;28;20490;-80
2022/05/07 01:50:42;;;;;;;0.00;0.00;;;;;;;17.17;50.27;102331.25;5058083;28;20053;-80
2022/05/07 01:53:11;;;;;;;0.05;0.05;;;;;;;17.14;50.47;102335.75;5057635;28;20065;-80
2022/05/07 01:55:37;;;;;;;0.00;0.00;;;;;;;17.11;50.79;102333.16;5054258;28;20384;-80
2022/05/07 01:58:04;;;;;;;0.00;0.00;;;;;;;17.11;50.64;102338.50;5067312;28;20093;-80
2022/05/07 02:00:31;;;;;;;0.17;0.17;;;;;;;17.07;50.84;102334.16;5056220;28;20163;-80
2022/05/07 02:02:58;;;;;;;0.00;0.00;;;;;;;17.06;51.15;102335.06;5056405;28;20029;-80
2022/05/07 02:05:26;;;;;;;0.00;0.00;;;;;;;17.05;50.54;102333.31;5054565;28;20031;-80
2022/05/07 02:07:54;;;;;;;0.00;0.00;;;;;;;17.05;50.97;102338.66;5063295;28;20024;-80
2022/05/07 02:10:20;;;;;;;0.00;0.00;;;;;;;17.05;50.45;102327.94;5057369;28;20036;-79
2022/05/07 02:12:48;;;;;;;0.00;0.00;;;;;;;17.02;51.61;102330.69;5066538;28;20040;-80
2022/05/07 02:15:14;;;;;;;0.30;0.30;;;;;;;17.02;50.55;102332.50;5065810;28;20033;-79
2022/05/07 02:17:40;;;;;;;0.40;0.40;;;;;;;17.02;51.02;102332.50;5063871;28;20033;-80
2022/05/07 02:20:07;;;;;;;0.10;0.10;;;;;;;17.03;51.32;102329.78;5055503;28;20036;-79
2022/05/07 02:22:33;;;;;;;0.10;0.10;;;;;;;16.98;50.98;102321.88;5071021;28;20028;-79
2022/05/07 02:24:59;;;;;;;0.10;0.10;;;;;;;17.00;51.36;102323.59;5067355;28;20029;-80
2022/05/07 02:27:26;;;;;;;0.05;0.05;;;;;;;16.99;51.94;102322.72;5060641;28;20037;-79
2022/05/07 02:29:52;;;;;;;0.00;0.00;;;;;;;16.93;52.41;102321.06;5047228;28;20514;-81
2022/05/07 02:32:19;;;;;;;0.35;0.35;;;;;;;16.94;51.88;102324.63;5041922;28;20052;-80
2022/05/07 02:34:46;;;;;;;0.10;0.10;;;;;;;16.93;52.11;102315.72;5048342;28;20044;-80
2022/05/07 02:37:12;;;;;;;0.10;0.10;;;;;;;16.93;52.37;102317.53;5046320;28;20025;-79
2022/05/07 02:39:39;;;;;;;0.00;0.00;;;;;;;16.93;52.71;102318.38;5059369;28;20029;-80
2022/05/07 02:42:36;;;;;;;0.00;0.00;;;;;;;16.93;52.39;102320.19;5054064;28;20071;-80
2022/05/07 02:44:51;;;;;;;0.25;0.25;;;;;;;16.94;52.83;102324.63;5048396;28;20049;-81
2022/05/07 02:47:18;;;;;;;0.05;0.05;;;;;;;16.92;52.61;102321.09;5050069;28;20103;-81
2022/05/07 02:49:44;;;;;;;0.00;0.00;;;;;;;16.90;52.46;102331.81;5059630;28;20021;-81
2022/05/07 02:52:10;;;;;;;0.03;0.03;;;;;;;16.88;52.80;102327.44;5057953;28;20055;-81
2022/05/07 02:54:36;;;;;;;0.20;0.20;;;;;;;16.85;53.18;102331.06;5066605;28;20169;-81
2022/05/07 02:57:02;;;;;;;0.10;0.10;;;;;;;16.84;54.21;102344.47;5060863;28;20067;-81
2022/05/07 02:59:29;;;;;;;0.32;0.32;;;;;;;16.83;53.62;102340.91;5069917;28;20035;-81
2022/05/07 03:01:56;;;;;;;0.08;0.08;;;;;;;16.82;53.23;102329.34;5061908;28;20080;-81
2022/05/07 03:04:22;;;;;;;0.10;0.10;;;;;;;16.80;53.77;102347.22;5071425;28;20618;-81
2022/05/07 03:06:48;;;;;;;0.28;0.28;;;;;;;16.80;53.73;102343.66;5069614;28;20020;-81
2022/05/07 03:09:14;;;;;;;0.30;0.30;;;;;;;16.76;54.15;102348.19;5073397;28;20044;-81
2022/05/07 03:11:41;;;;;;;0.00;0.00;;;;;;;16.75;55.00;102348.25;5072566;28;20028;-82
2022/05/07 03:14:07;;;;;;;0.47;0.32;;;;;;;16.72;54.24;102341.13;5079144;28;20116;-81
2022/05/07 03:16:35;;;;;;;0.05;0.05;;;;;;;16.69;54.14;102346.56;5046910;28;20029;-81
2022/05/07 03:19:02;;;;;;;0.28;0.28;;;;;;;16.66;54.84;102349.31;5066313;28;20036;-80
2022/05/07 03:21:29;;;;;;;0.10;0.10;;;;;;;16.63;54.33;102344.88;5082192;28;20479;-80
2022/05/07 03:23:55;;;;;;;0.40;0.40;;;;;;;16.61;55.12;102345.84;5057445;28;20040;-81
2022/05/07 03:26:22;;;;;;;0.00;0.00;;;;;;;16.58;54.83;102348.59;5053430;28;20025;-80
2022/05/07 03:28:48;;;;;;;0.00;0.00;;;;;;;16.56;54.81;102345.06;5058517;28;20032;-81
2022/05/07 03:31:15;;;;;;;0.00;0.00;;;;;;;16.50;56.02;102346.94;5044838;28;20036;-80
2022/05/07 03:33:42;;;;;;;0.00;0.00;;;;;;;16.49;54.70;102347.88;5052294;28;20021;-80
2022/05/07 03:36:09;;;;;;;0.10;0.10;;;;;;;16.47;55.53;102348.81;5046020;28;20045;-80
2022/05/07 03:38:35;;;;;;;0.00;0.00;;;;;;;16.44;55.84;102347.09;5055219;28;20479;-81
2022/05/07 03:41:03;;;;;;;0.00;0.00;;;;;;;16.45;54.98;102358.69;5053719;28;20033;-80
2022/05/07 03:43:29;;;;;;;0.10;0.10;;;;;;;16.41;55.47;102355.19;5056377;28;20036;-80
2022/05/07 03:45:55;;;;;;;0.00;0.00;;;;;;;16.38;55.93;102355.22;5058749;28;20032;-81
2022/05/07 03:48:21;;;;;;;0.00;0.00;;;;;;;16.37;54.98;102353.47;5055397;28;20064;-81
2022/05/07 03:50:47;;;;;;;0.00;0.00;;;;;;;16.31;56.17;102351.81;5056495;28;20095;-81
2022/05/07 03:53:45;;;;;;;0.40;0.40;;;;;;;16.33;56.03;102349.09;5051740;28;20444;-81
2022/05/07 03:56:03;;;;;;;0.57;0.57;;;;;;;16.31;56.28;102356.25;5052999;28;20449;-79
2022/05/07 03:58:29;;;;;;;0.10;0.10;;;;;;;16.27;55.77;102359.91;5056787;28;20039;-82
2022/05/07 04:00:57;;;;;;;0.03;0.03;;;;;;;16.25;56.22;102354.59;5053262;28;20120;-83
2022/05/07 04:03:24;;;;;;;0.00;0.00;;;;;;;16.23;57.56;102348.41;5056135;28;20043;-81
2022/05/07 04:05:50;;;;;;;0.80;0.80;;;;;;;16.25;56.54;102348.34;5046920;28;20028;-80
2022/05/07 04:08:17;;;;;;;0.10;0.10;;;;;;;16.27;55.99;102344.75;5044555;28;20042;-80
2022/05/07 04:10:44;;;;;;;0.35;0.35;;;;;;;16.27;55.73;102354.56;5049114;28;20052;-80
2022/05/07 04:13:11;;;;;;;0.10;0.10;;;;;;;16.25;56.57;102361.72;5052175;28;20104;-79
2022/05/07 04:15:38;;;;;;;0.10;0.10;;;;;;;16.21;57.84;102352.00;5049999;28;20029;-79
2022/05/07 04:18:06;;;;;;;0.10;0.10;;;;;;;16.22;57.49;102356.47;5054015;28;20490;-80
2022/05/07 04:20:32;;;;;;;0.10;0.10;;;;;;;16.22;57.14;102357.31;5051978;28;20036;-79
2022/05/07 04:22:58;;;;;;;0.10;0.10;;;;;;;16.22;57.42;102362.66;5050852;28;20040;-79
2022/05/07 04:25:24;;;;;;;0.13;0.13;;;;;;;16.23;56.55;102361.75;5053357;28;20033;-79
2022/05/07 04:27:51;;;;;;;0.00;0.00;;;;;;;16.24;57.73;102368.00;5053694;28;20061;-79
2022/05/07 04:30:17;;;;;;;0.10;0.10;;;;;;;16.26;57.24;102374.19;5049628;28;20554;-79
2022/05/07 04:32:43;;;;;;;0.00;0.00;;;;;;;16.22;58.42;102377.84;5039523;28;20053;-80
2022/05/07 04:35:09;;;;;;;0.40;0.40;;;;;;;16.23;57.81;102379.63;5053765;28;20033;-80
2022/05/07 04:37:36;;;;;;;0.08;0.08;;;;;;;16.21;57.43;102371.59;5049282;28;20260;-80
2022/05/07 04:40:02;;;;;;;2.20;0.80;;;;;;;16.18;57.79;102372.53;5047661;28;20036;-78
2022/05/07 04:42:28;;;;;;;0.40;0.40;;;;;;;16.21;58.40;102376.09;5043998;28;20556;-79
2022/05/07 04:44:54;;;;;;;3.72;1.23;;;;;;;16.26;59.14;102376.88;5050295;28;20029;-79
2022/05/07 04:47:20;;;;;;;0.20;0.20;;;;;;;16.27;57.61;102378.63;5052923;28;20048;-80
2022/05/07 04:49:47;;;;;;;0.00;0.00;;;;;;;16.36;58.08;102386.47;5052393;28;20545;-82
2022/05/07 04:52:13;;;;;;;0.43;0.43;;;;;;;16.39;57.61;102378.41;5054344;28;20248;-79
2022/05/07 04:54:41;;;;;;;0.08;0.08;;;;;;;16.42;57.98;102381.00;5052221;28;20076;-79
2022/05/07 04:57:07;;;;;;;0.35;0.35;;;;;;;16.55;57.47;102380.75;5054318;28;20029;-79
2022/05/07 04:59:33;;;;;;;13.27;2.83;;;;;;;16.60;57.88;102384.25;5049562;28;20040;-78
2022/05/07 05:01:59;;;;;;;0.10;0.10;;;;;;;16.64;58.42;102391.28;5045026;28;20029;-79
2022/05/07 05:04:25;;;;;;;0.00;0.00;;;;;;;16.67;57.88;102385.84;5039774;28;20026;-79
2022/05/07 05:06:51;;;;;;;2.40;2.20;;;;;;;16.76;57.90;102379.41;5059965;28;20040;-79
2022/05/07 05:09:18;;;;;;;0.10;0.10;;;;;;;16.79;58.40;102385.59;5061476;28;20036;-79
2022/05/07 05:11:44;;;;;;;0.38;0.38;;;;;;;16.88;56.96;102389.00;5060986;28;20528;-80
2022/05/07 05:16:56;;;;;;;0.13;0.13;;;;;;;16.95;57.29;102393.34;5055640;28;20032;-80
2022/05/07 05:19:22;;;;;;;0.05;0.05;;;;;;;16.97;57.70;102394.16;5054776;28;20202;-80
2022/05/07 05:21:48;;;;;;;0.20;0.20;;;;;;;16.99;57.78;102395.03;5056575;28;20037;-79
2022/05/07 05:24:15;;;;;;;1.08;1.08;;;;;;;16.97;57.35;102404.88;5056491;28;20656;-79
2022/05/07 05:26:41;;;;;;;0.15;0.15;;;;;;;17.04;56.91;102397.59;5062393;28;20033;-79
2022/05/07 05:29:07;;;;;;;0.25;0.25;;;;;;;17.07;56.33;102408.25;5073331;28;20040;-79
2022/05/07 05:31:33;;;;;;;0.10;0.10;;;;;;;17.07;56.53;102416.28;5056494;28;20786;-80
2022/05/07 05:33:59;;;;;;;0.10;0.10;;;;;;;17.03;57.56;102411.91;5056967;28;20036;-79
2022/05/07 05:36:30;;;;;;;0.10;0.10;;;;;;;17.06;57.15;102414.50;5053919;28;20178;-80
2022/05/07 05:38:56;;;;;;;0.10;0.10;;;;;;;17.00;57.50;102417.31;5053826;28;20036;-79
2022/05/07 05:41:22;;;;;;;0.35;0.35;;;;;;;17.09;56.72;102412.66;5054705;28;20037;-79
2022/05/07 05:43:49;;;;;;;0.10;0.10;;;;;;;17.13;57.21;102418.81;5056542;28;20041;-79
2022/05/07 05:46:15;;;;;;;0.38;0.38;;;;;;;17.17;56.94;102417.84;5064402;28;20060;-81
2022/05/07 05:48:41;;;;;;;0.90;0.90;;;;;;;17.23;56.67;102422.16;5065097;28;20056;-80
2022/05/07 05:51:08;;;;;;;0.10;0.10;;;;;;;17.27;56.63;102418.50;5059234;28;20029;-81
2022/05/07 05:53:34;;;;;;;0.55;0.55;;;;;;;17.34;56.79;102414.75;5088630;22;20052;-78
2022/05/07 05:56:00;;;;;;;0.00;0.00;;;;;;;17.36;57.43;102415.63;5095300;28;20064;-81
2022/05/07 05:58:33;;;;;;;0.20;0.20;;;;;;;17.43;57.01;102425.28;5099772;28;20510;-80
2022/05/07 06:01:00;;;;;;;0.50;0.50;;;;;;;17.51;56.34;102416.16;5088324;28;20498;-80
2022/05/07 06:03:26;;;;;;;0.20;0.20;;;;;;;17.55;56.29;102417.88;5095118;28;20135;-79
2022/05/07 06:05:52;;;;;;;0.22;0.22;;;;;;;17.55;56.77;102417.88;5068520;28;20438;-80
2022/05/07 06:08:18;;;;;;;0.20;0.20;;;;;;;17.62;56.42;102419.47;5074158;28;20060;-79
2022/05/07 06:10:45;;;;;;;1.55;1.45;;;;;;;17.67;56.40;102417.56;5075094;28;20162;-80
2022/05/07 06:13:11;;;;;;;0.30;0.25;;;;;;;17.68;56.62;102413.94;5072359;28;20491;-79
2022/05/07 06:15:38;;;;;;;0.30;0.20;;;;;;;17.73;55.88;102413.84;5070054;28;20036;-80
2022/05/07 06:18:04;;;;;;;0.00;0.00;;;;;;;17.76;56.19;102422.69;5078102;28;20105;-81
2022/05/07 06:20:31;;;;;;;0.63;0.57;;;;;;;17.79;56.29;102417.25;5078718;28;20028;-79
2022/05/07 06:22:59;;;;;;;0.10;0.10;;;;;;;17.83;56.05;102418.06;5071897;28;20028;-79
2022/05/07 06:28:11;;;;;;;0.90;0.90;;;;;;;17.89;55.77;102417.00;5077559;28;20045;-81
2022/05/07 06:30:37;;;;;;;0.00;0.00;;;;;;;17.85;55.58;102413.53;5078474;28;20148;-79
2022/05/07 06:33:04;;;;;;;0.00;0.00;;;;;;;17.88;56.03;102420.59;5076627;28;20511;-80
2022/05/07 06:35:30;;;;;;;0.43;0.43;;;;;;;17.88;55.54;102423.28;5075838;28;20106;-80
2022/05/07 06:37:56;;;;;;;0.00;0.00;;;;;;;17.91;55.82;102425.91;5080681;28;20095;-81
2022/05/07 06:40:22;;;;;;;3.50;0.95;;;;;;;17.97;55.60;102422.22;5080092;28;20047;-80
2022/05/07 06:42:49;;;;;;;0.30;0.30;;;;;;;17.99;55.89;102415.88;5073767;28;20064;-79
2022/05/07 06:45:16;;;;;;;0.13;0.13;;;;;;;18.07;55.72;102427.28;5083705;28;20081;-80
2022/05/07 06:47:42;;;;;;;0.25;0.25;;;;;;;18.10;55.50;102420.97;5074776;28;20055;-80
2022/05/07 06:50:10;;;;;;;0.03;0.03;;;;;;;18.22;55.32;102426.00;5082744;28;20020;-80
2022/05/07 06:52:45;;;;;;;0.00;0.00;;;;;;;18.37;55.33;102429.22;5073553;28;20028;-81
2022/05/07 06:55:14;;;;;;;0.10;0.10;;;;;;;18.41;55.06;102425.50;5074596;28;20027;-78
2022/05/07 06:57:42;;;;;;;0.10;0.10;;;;;;;18.48;55.07;102431.56;5078737;28;20031;-80
2022/05/07 07:00:10;;;;;;;0.05;0.05;;;;;;;18.54;54.85;102434.09;5074199;28;20028;-80
2022/05/07 07:02:36;;;;;;;0.10;0.10;;;;;;;18.61;54.54;102433.00;5081312;28;20062;-79
2022/05/07 07:05:03;;;;;;;0.00;0.00;;;;;;;18.67;54.29;102438.19;5089773;28;20040;-82
2022/05/07 07:07:30;;;;;;;0.15;0.15;;;;;;;18.74;54.18;102441.56;5071097;28;20035;-80
2022/05/07 07:09:57;;;;;;;0.10;0.10;;;;;;;18.79;54.36;102436.97;5083968;28;20474;-79
2022/05/07 07:12:23;;;;;;;1.23;0.82;;;;;;;18.81;53.89;102435.09;5084288;28;20029;-80
2022/05/07 07:14:49;;;;;;;0.03;0.03;;;;;;;18.86;54.00;102430.47;5078675;28;20166;-80
2022/05/07 07:17:17;;;;;;;0.10;0.10;;;;;;;18.96;53.91;102433.78;5074995;28;20036;-81
2022/05/07 07:19:44;;;;;;;0.52;0.52;;;;;;;19.05;53.83;102438.91;5071105;28;20443;-79
2022/05/07 07:22:11;;;;;;;0.00;0.00;;;;;;;19.14;53.75;102436.84;5074112;28;20040;-81
2022/05/07 07:24:37;;;;;;;0.00;0.00;;;;;;;19.29;53.05;102431.03;5081023;28;20050;-81
2022/05/07 07:27:04;;;;;;;0.65;0.65;;;;;;;19.42;53.13;102441.38;5072363;28;20036;-80
2022/05/07 07:29:31;;;;;;;0.82;0.80;;;;;;;19.52;52.68;102434.78;5068525;28;20036;-82
2022/05/07 07:31:57;;;;;;;0.20;0.20;;;;;;;19.66;52.56;102431.63;5088979;28;20191;-81
2022/05/07 07:34:23;;;;;;;0.38;0.38;;;;;;;19.77;52.19;102432.16;5077989;28;20028;-80
2022/05/07 07:36:50;;;;;;;0.03;0.03;;;;;;;19.92;52.27;102428.09;5069543;28;20032;-79
2022/05/07 07:39:17;;;;;;;0.00;0.00;;;;;;;19.98;51.86;102430.56;5080365;28;20044;-81
2022/05/07 07:41:43;;;;;;;0.00;0.00;;;;;;;20.14;51.49;102428.22;5077272;28;20553;-81
2022/05/07 07:44:10;;;;;;;0.50;0.50;;;;;;;20.19;51.57;102434.31;5089020;28;20096;-81
2022/05/07 07:49:23;;;;;;;0.20;0.20;;;;;;;20.20;51.57;102437.91;5069811;28;20522;-79
2022/05/07 07:51:49;;;;;;;0.00;0.00;;;;;;;20.16;51.51;102438.94;5066380;28;20036;-81
2022/05/07 07:54:16;;;;;;;0.00;0.00;;;;;;;20.20;51.76;102437.91;5071205;28;20227;-82
2022/05/07 07:56:43;;;;;;;0.05;0.05;;;;;;;20.18;51.69;102437.94;5080184;28;20039;-82
2022/05/07 07:59:10;;;;;;;1.23;1.13;;;;;;;20.21;51.75;102434.25;5088209;28;20395;-82
2022/05/07 08:01:36;;;;;;;1.35;1.02;;;;;;;20.21;52.03;102442.34;5069278;28;20037;-80
2022/05/07 08:04:04;;;;;;;0.10;0.10;;;;;;;20.23;51.57;102436.94;5081946;28;20044;-82
2022/05/07 08:06:31;;;;;;;0.30;0.30;;;;;;;20.25;51.45;102444.00;5080886;28;20094;-81
2022/05/07 08:11:46;;;;;;;1.85;0.80;;;;;;;20.45;50.63;102445.97;5063981;28;20399;-82
2022/05/07 08:14:13;;;;;;;0.05;0.05;;;;;;;20.55;50.54;102451.03;5082929;28;20059;-82
2022/05/07 08:16:41;;;;;;;0.05;0.05;;;;;;;20.59;50.39;102447.31;5069142;28;20218;-81
2022/05/07 08:19:07;;;;;;;0.73;0.73;;;;;;;20.74;50.34;102440.50;5069241;28;20025;-79
2022/05/07 08:21:34;;;;;;;0.10;0.10;;;;;;;20.82;50.33;102449.16;5066412;28;20047;-81
2022/05/07 08:24:00;;;;;;;0.00;0.00;;;;;;;20.89;49.77;102450.69;5066987;28;20068;-82
2022/05/07 08:26:26;;;;;;;0.20;0.20;;;;;;;20.94;49.96;102442.44;5066344;28;20034;-82
2022/05/07 08:28:53;;;;;;;0.08;0.08;;;;;;;21.04;49.91;102449.22;5061733;28;20039;-80
2022/05/07 08:31:23;;;;;;;0.30;0.30;;;;;;;21.07;50.41;102448.22;5062833;28;20484;-82
2022/05/07 08:33:50;;;;;;;2.00;1.85;;;;;;;21.15;50.04;102446.09;5060848;28;20028;-80
2022/05/07 08:36:16;;;;;;;0.00;0.00;;;;;;;21.22;49.81;102447.63;5069048;28;20036;-79
2022/05/07 08:38:43;;;;;;;0.35;0.35;;;;;;;21.25;49.48;102450.19;5076065;28;20757;-81
2022/05/07 08:41:11;;;;;;;0.00;0.00;;;;;;;21.22;49.40;102450.31;5071718;28;20025;-81
2022/05/07 08:43:39;;;;;;;0.25;0.25;;;;;;;21.31;49.56;102452.66;5067644;28;20044;-82
2022/05/07 08:46:10;;;;;;;0.00;0.00;;;;;;;21.37;49.20;102456.03;5069708;28;20428;-82
2022/05/07 08:48:38;;;;;;;0.20;0.20;;;;;;;21.41;49.37;102455.84;5060767;28;20035;-83
2022/05/07 08:51:05;;;;;;;0.10;0.10;;;;;;;21.45;48.95;102456.59;5064447;28;20056;-81
2022/05/07 08:53:31;;;;;;;0.80;0.65;;;;;;;21.50;48.78;102452.78;5067606;28;20606;-81
2022/05/07 08:55:58;;;;;;;0.10;0.10;;;;;;;21.54;48.17;102448.13;5068825;28;20037;-82
2022/05/07 08:58:24;;;;;;;0.80;0.80;;;;;;;21.62;48.44;102451.44;5078061;28;20357;-82
2022/05/07 09:00:50;;;;;;;0.00;0.00;;;;;;;21.73;48.20;102451.00;5077020;28;20035;-82
2022/05/07 09:03:18;;;;;;;0.60;0.60;;;;;;;21.82;47.90;102452.44;5077811;28;20122;-81
2022/05/07 09:05:44;;;;;;;0.55;0.52;;;;;;;21.84;46.18;102455.06;5078025;28;20548;-83
2022/05/07 09:08:12;;;;;;;0.00;0.00;;;;;;;21.93;46.92;102455.56;5078101;28;20058;-82
2022/05/07 09:10:39;;;;;;;0.30;0.30;;;;;;;22.01;46.39;102454.31;5079506;28;20046;-82
2022/05/07 09:13:14;;;;;;;0.10;0.10;;;;;;;22.01;45.86;102459.72;5076406;28;20193;-81
2022/05/07 09:15:58;;;;;;;0.20;0.20;;;;;;;22.05;45.57;102464.94;5069390;28;20032;-82
2022/05/07 09:18:26;;;;;;;0.95;0.95;;;;;;;22.00;46.14;102460.69;5077589;28;20033;-82
2022/05/07 09:21:16;;;;;;;1.25;1.17;;;;;;;22.12;45.89;102457.47;5074206;28;20071;-83
2022/05/07 09:26:29;;;;;;;0.00;0.00;;;;;;;22.18;45.57;102462.59;5099304;27;20924;-81
2022/05/07 09:28:56;;;;;;;0.10;0.10;;;;;;;22.14;45.94;102463.66;5041644;28;20741;-82
2022/05/07 09:31:26;;;;;;;0.30;0.30;;;;;;;22.25;46.49;102461.38;5052713;28;20033;-80
2022/05/07 09:33:52;;;;;;;0.30;0.30;;;;;;;22.26;45.29;102473.94;5044051;28;20057;-81
2022/05/07 09:36:19;;;;;;;0.03;0.03;;;;;;;22.33;45.21;102458.34;5044870;28;20500;-78
2022/05/07 09:38:48;;;;;;;0.00;0.00;;;;;;;22.43;45.25;102465.13;5045918;28;20025;-80
2022/05/07 09:41:21;;;;;;;0.20;0.20;;;;;;;22.54;45.21;102464.66;5048219;28;20116;-78
2022/05/07 09:43:51;;;;;;;0.22;0.22;;;;;;;22.57;44.67;102459.09;5046545;28;20029;-80
2022/05/07 09:46:19;;;;;;;0.10;0.10;;;;;;;22.65;45.16;102474.09;5044764;28;20029;-77
2022/05/07 09:48:46;;;;;;;0.60;0.60;;;;;;;22.70;45.01;102467.50;5044311;28;20029;-77
2022/05/07 09:51:12;;;;;;;0.40;0.40;;;;;;;22.75;44.67;102460.09;5044432;28;20060;-78
2022/05/07 09:59:13;;;;;;;0.25;0.25;;;;;;;23.02;43.83;102462.44;5046350;28;20041;-81
2022/05/07 10:02:04;;;;;;;0.00;0.00;;;;;;;23.20;43.74;102468.88;5046735;28;20045;-81
2022/05/07 10:07:33;;;;;;;1.02;0.93;;;;;;;23.22;43.71;102475.06;5050457;28;20419;-83
2022/05/07 10:12:59;;;;;;;0.85;0.70;;;;;;;23.32;42.60;102472.78;5084552;27;1321030;-81
2022/05/07 10:15:26;;;;;;;0.10;0.10;;;;;;;23.42;43.51;102475.94;5088868;28;20537;-79
2022/05/07 10:20:44;;;;;;;0.00;0.00;;;;;;;23.57;40.95;102472.47;5058692;28;20415;-84
2022/05/07 10:23:12;;;;;;;0.15;0.15;;;;;;;23.57;41.35;102472.47;5042218;28;20029;-83
2022/05/07 10:25:40;;;;;;;0.10;0.10;;;;;;;23.66;41.70;102468.41;5049917;28;20040;-83
2022/05/07 10:28:09;;;;;;;0.15;0.15;;;;;;;23.83;41.84;102467.59;5050623;28;20025;-83
2022/05/07 10:30:47;;;;;;;0.25;0.25;;;;;;;23.98;42.11;102465.09;5037656;28;20064;-84
2022/05/07 10:33:13;;;;;;;0.35;0.35;;;;;;;24.01;41.14;102473.94;5043807;28;20025;-84
2022/05/07 10:35:48;;;;;;;0.43;0.43;;;;;;;24.19;41.78;102472.09;5048221;28;20029;-84
2022/05/07 10:38:26;;;;;;;2.45;0.80;;;;;;;24.30;41.65;102462.53;5035218;28;20052;-84
2022/05/07 10:41:04;;;;;;;0.65;0.65;;;;;;;24.47;40.67;102461.63;5041053;28;20415;-84
2022/05/07 10:43:36;;;;;;;0.03;0.03;;;;;;;24.59;41.42;102460.13;5049345;28;20021;-84
2022/05/07 10:51:30;;;;;;;1.10;0.95;;;;;;;24.86;40.04;102466.78;5089963;27;20427;-80
2022/05/07 10:54:00;;;;;;;0.10;0.10;;;;;;;24.89;40.05;102464.88;5093677;28;20499;-80
2022/05/07 10:56:28;;;;;;;0.50;0.50;;;;;;;24.91;39.85;102462.91;5095810;28;20033;-81
2022/05/07 10:58:57;;;;;;;1.52;1.15;;;;;;;24.81;40.97;102457.13;5081428;28;20089;-80
2022/05/07 11:01:26;;;;;;;0.30;0.30;;;;;;;24.67;41.05;102456.06;5088398;28;20040;-82
2022/05/07 11:04:12;;;;;;;1.85;0.68;;;;;;;24.68;41.22;102465.94;5080281;28;20395;-82
2022/05/07 11:09:19;;;;;;;0.20;0.20;;;;;;;24.29;41.29;102468.91;5108852;27;20404;-82
2022/05/07 11:11:49;;;;;;;0.20;0.20;;;;;;;24.19;41.54;102461.25;5088728;28;20033;-81
2022/05/07 11:17:00;;;;;;;0.30;0.30;;;;;;;24.06;42.20;102466.47;5045106;27;20400;-83
2022/05/07 11:19:29;;;;;;;0.77;0.77;;;;;;;24.05;41.91;102464.69;5059823;27;20052;-84
2022/05/07 11:21:56;;;;;;;0.10;0.10;;;;;;;24.09;42.12;102460.00;5057653;27;20553;-82
2022/05/07 11:24:25;;;;;;;0.10;0.10;;;;;;;24.04;41.97;102457.53;5086556;27;20076;-83
2022/05/07 11:26:57;;;;;;;0.30;0.30;;;;;;;23.98;42.80;102462.38;5072063;27;20587;-83
2022/05/07 11:29:23;;;;;;;;;;;;;;;24.04;42.34;102467.50;5056854;27;20060;-83
2022/05/07 11:31:59;;;;;;;0.32;0.32;;;;;;;23.92;42.80;102460.84;5033005;27;19970;-81
2022/05/07 11:34:38;;;;;;;0.50;0.50;;;;;;;23.89;42.82;102459.16;5034524;27;20033;-84
2022/05/07 11:37:19;;;;;;;0.98;0.98;;;;;;;23.90;42.44;102457.31;5040800;27;20041;-83
2022/05/07 11:40:00;;;;;;;1.92;0.63;;;;;;;24.04;42.67;102462.06;5050827;27;20080;-83
2022/05/07 11:42:35;;;;;;;0.20;0.20;;;;;;;24.05;42.31;102459.28;5068399;27;20397;-83
2022/05/07 11:45:37;;;;;;;0.20;0.20;;;;;;;24.03;42.60;102454.91;5032556;27;20033;-83
2022/05/07 11:47:53;;;;;;;0.47;0.47;;;;;;;23.87;42.53;102460.19;5033916;27;20571;-87
2022/05/07 11:50:22;;;;;;;1.10;0.88;;;;;;;23.89;43.01;102466.41;5032689;27;20022;-83
2022/05/07 11:52:48;;;;;;;4.18;2.22;;;;;;;23.84;42.85;102458.50;5038700;27;20407;-84
2022/05/07 11:55:17;;;;;;;1.13;0.85;;;;;;;23.84;42.68;102457.63;5192646;22;20006;-82
2022/05/07 11:57:46;;;;;;;0.90;0.90;;;;;;;23.79;42.54;102468.69;5027835;28;20482;-83
2022/05/07 12:10:57;;;;;;;0.20;0.10;;;;;;;23.43;42.19;102466.88;5064495;28;20489;-83
2022/05/07 12:13:24;;;;;;;3.97;0.73;;;;;;;23.47;41.77;102457.63;5029861;28;20495;-81
2022/05/07 12:18:41;;;;;;;0.05;0.05;;;;;;;24.02;41.05;102461.25;5033805;28;20495;-84
2022/05/07 12:21:08;;;;;;;0.80;0.80;;;;;;;24.42;41.80;102444.75;5033714;28;20042;-84
2022/05/07 12:31:53;;;;;;;0.47;0.47;;;;;;;25.06;39.78;102451.25;5031602;28;20109;-83